createdAt,value
2018-12-07T00:11:03.060Z,14.10
2018-12-07T00:13:39.189Z,14.10
2018-12-07T00:16:13.740Z,14.00
2018-12-07T00:18:48.097Z,14.00
2018-12-07T00:21:22.986Z,14.00
2018-12-07T00:23:57.197Z,14.00
2018-12-07T00:26:44.650Z,14.00
2018-12-07T00:29:24.172Z,13.90
2018-12-07T00:31:58.453Z,13.90
2018-12-07T00:34:32.504Z,13.90
2018-12-07T00:37:06.738Z,13.90
2018-12-07T00:39:40.617Z,13.80
2018-12-07T00:42:14.817Z,13.80
2018-12-07T00:44:48.735Z,13.80
2018-12-07T00:47:42.129Z,13.80
2018-12-07T00:50:14.228Z,13.80
2018-12-07T00:52:48.128Z,13.90
2018-12-07T00:55:35.107Z,13.80
2018-12-07T00:58:09.426Z,13.80
2018-12-07T01:00:41.367Z,13.90
2018-12-07T01:03:12.791Z,13.80
2018-12-07T01:05:46.592Z,13.80
2018-12-07T01:08:20.842Z,13.80
2018-12-07T01:10:55.013Z,13.80
2018-12-07T01:13:28.964Z,13.80
2018-12-07T01:19:02.810Z,13.80
2018-12-07T01:21:36.705Z,13.80
2018-12-07T01:24:11.038Z,13.80
2018-12-07T01:26:45.153Z,13.80
2018-12-07T01:29:19.418Z,13.80
2018-12-07T01:31:53.740Z,13.80
2018-12-07T01:34:43.083Z,13.70
2018-12-07T01:37:26.470Z,13.80
2018-12-07T01:39:58.313Z,13.80
2018-12-07T01:42:31.791Z,13.80
2018-12-07T01:45:10.121Z,13.70
2018-12-07T01:47:48.005Z,13.70
2018-12-07T01:50:22.465Z,13.70
2018-12-07T01:52:56.798Z,13.70
2018-12-07T01:55:30.871Z,13.70
2018-12-07T01:58:18.502Z,13.80
2018-12-07T02:00:50.618Z,13.70
2018-12-07T02:03:24.802Z,13.70
2018-12-07T02:05:58.955Z,13.70
2018-12-07T02:08:33.194Z,13.70
2018-12-07T02:11:07.510Z,13.80
2018-12-07T02:13:44.959Z,13.70
2018-12-07T02:16:19.028Z,13.70
2018-12-07T02:18:53.366Z,13.70
2018-12-07T02:21:27.529Z,13.80
2018-12-07T02:24:01.495Z,13.70
2018-12-07T02:26:38.865Z,13.70
2018-12-07T02:29:13.156Z,13.70
2018-12-07T02:31:47.339Z,13.70
2018-12-07T02:34:21.401Z,13.70
2018-12-07T02:36:55.624Z,13.70
2018-12-07T02:39:29.725Z,13.70
2018-12-07T02:42:04.216Z,13.70
2018-12-07T02:44:38.461Z,13.70
2018-12-07T02:47:12.367Z,13.70
2018-12-07T02:49:46.348Z,13.70
2018-12-07T02:52:20.629Z,13.70
2018-12-07T02:54:55.004Z,13.70
2018-12-07T02:57:29.174Z,13.70
2018-12-07T03:00:07.646Z,13.70
2018-12-07T03:02:42.421Z,13.70
2018-12-07T03:05:17.213Z,13.70
2018-12-07T03:07:51.391Z,13.70
2018-12-07T03:10:25.641Z,13.60
2018-12-07T03:13:02.598Z,13.60
2018-12-07T03:15:36.888Z,13.60
2018-12-07T03:21:23.275Z,13.60
2018-12-07T03:23:57.652Z,13.60
2018-12-07T03:26:32.002Z,13.60
2018-12-07T03:29:06.187Z,13.50
2018-12-07T03:31:40.510Z,13.60
2018-12-07T03:34:14.488Z,13.50
2018-12-07T03:36:48.746Z,13.50
2018-12-07T03:39:22.880Z,13.50
2018-12-07T03:41:57.078Z,13.50
2018-12-07T03:44:31.458Z,13.60
2018-12-07T03:47:05.515Z,13.50
2018-12-07T03:49:39.893Z,13.50
2018-12-07T03:52:14.077Z,13.60
2018-12-07T03:54:45.193Z,13.60
2018-12-07T03:57:19.735Z,13.50
2018-12-07T03:59:54.200Z,13.50
2018-12-07T04:02:28.340Z,13.50
2018-12-07T04:05:02.341Z,13.50
2018-12-07T04:07:36.531Z,13.60
2018-12-07T04:10:13.923Z,13.60
2018-12-07T04:12:48.368Z,13.60
2018-12-07T04:15:22.560Z,13.60
2018-12-07T04:18:15.943Z,13.60
2018-12-07T04:20:50.513Z,13.60
2018-12-07T04:23:24.832Z,13.60
2018-12-07T04:25:58.973Z,13.60
2018-12-07T04:28:32.984Z,13.60
2018-12-07T04:31:07.149Z,13.60
2018-12-07T04:33:41.378Z,13.60
2018-12-07T04:36:20.086Z,13.60
2018-12-07T04:38:54.154Z,13.60
2018-12-07T04:41:31.670Z,13.60
2018-12-07T04:44:06.107Z,13.60
2018-12-07T04:46:58.613Z,13.60
2018-12-07T04:49:33.416Z,13.60
2018-12-07T04:52:22.075Z,13.60
2018-12-07T04:54:54.841Z,13.60
2018-12-07T04:57:28.867Z,13.70
2018-12-07T05:00:02.845Z,13.70
2018-12-07T05:02:37.071Z,13.70
2018-12-07T05:05:11.703Z,13.70
2018-12-07T05:07:45.649Z,13.60
2018-12-07T05:10:19.904Z,13.60
2018-12-07T05:12:54.277Z,13.60
2018-12-07T05:15:28.346Z,13.60
2018-12-07T05:18:02.816Z,13.60
2018-12-07T05:20:37.615Z,13.60
2018-12-07T05:23:11.584Z,13.60
2018-12-07T05:25:46.020Z,13.60
2018-12-07T05:28:20.124Z,13.60
2018-12-07T05:30:54.489Z,13.60
2018-12-07T05:33:28.853Z,13.60
2018-12-07T05:36:02.913Z,13.50
2018-12-07T05:38:37.002Z,13.60
2018-12-07T05:41:11.131Z,13.60
2018-12-07T05:46:53.323Z,13.60
2018-12-07T05:49:27.868Z,13.60
2018-12-07T05:52:02.322Z,13.60
2018-12-07T05:54:36.423Z,13.60
2018-12-07T05:57:33.241Z,13.60
2018-12-07T06:00:07.854Z,13.60
2018-12-07T06:02:44.708Z,13.50
2018-12-07T06:05:19.077Z,13.50
2018-12-07T06:10:53.318Z,13.50
2018-12-07T06:13:27.653Z,13.50
2018-12-07T06:16:02.137Z,13.50
2018-12-07T06:18:34.071Z,13.50
2018-12-07T06:21:08.172Z,13.50
2018-12-07T06:23:42.586Z,13.50
2018-12-07T06:26:20.695Z,13.50
2018-12-07T06:28:54.886Z,13.50
2018-12-07T06:34:34.822Z,13.50
2018-12-07T06:37:09.077Z,13.50
2018-12-07T06:39:43.312Z,13.40
2018-12-07T06:42:30.123Z,13.40
2018-12-07T06:45:05.357Z,13.50
2018-12-07T06:47:37.414Z,13.40
2018-12-07T06:50:11.458Z,13.40
2018-12-07T06:52:45.822Z,13.40
2018-12-07T06:55:20.161Z,13.40
2018-12-07T06:57:54.440Z,13.40
2018-12-07T07:00:32.671Z,13.50
2018-12-07T07:03:07.366Z,13.40
2018-12-07T07:05:41.773Z,13.40
2018-12-07T07:08:16.287Z,13.40
2018-12-07T07:10:52.065Z,13.40
2018-12-07T07:16:32.496Z,13.40
2018-12-07T07:19:06.951Z,13.40
2018-12-07T07:24:41.168Z,13.40
2018-12-07T07:27:15.523Z,13.30
2018-12-07T07:29:49.604Z,13.40
2018-12-07T07:32:23.767Z,13.30
2018-12-07T07:34:57.933Z,13.30
2018-12-07T07:37:32.330Z,13.30
2018-12-07T07:40:06.507Z,13.30
2018-12-07T07:45:45.071Z,13.30
2018-12-07T07:48:19.152Z,13.30
2018-12-07T07:50:53.456Z,13.30
2018-12-07T07:53:27.924Z,13.20
2018-12-07T07:56:19.490Z,13.30
2018-12-07T07:58:53.496Z,13.20
2018-12-07T08:01:27.918Z,13.20
2018-12-07T08:04:01.952Z,13.20
2018-12-07T08:06:37.727Z,13.20
2018-12-07T08:09:12.510Z,13.10
2018-12-07T08:11:46.521Z,13.10
2018-12-07T08:14:21.795Z,13.10
2018-12-07T08:16:55.716Z,13.10
2018-12-07T08:19:29.837Z,13.10
2018-12-07T08:22:04.142Z,13.10
2018-12-07T08:24:38.105Z,13.10
2018-12-07T08:27:12.279Z,13.10
2018-12-07T08:29:46.381Z,13.10
2018-12-07T08:32:20.885Z,13.10
2018-12-07T08:34:56.505Z,13.10
2018-12-07T08:37:30.505Z,13.20
2018-12-07T08:40:06.824Z,13.10
2018-12-07T08:42:40.889Z,13.20
2018-12-07T08:45:15.529Z,13.20
2018-12-07T08:47:50.021Z,13.20
2018-12-07T08:50:24.177Z,13.20
2018-12-07T08:52:58.446Z,13.10
2018-12-07T08:55:33.924Z,13.10
2018-12-07T08:58:08.211Z,13.10
2018-12-07T09:00:42.456Z,13.10
2018-12-07T09:03:16.657Z,13.10
2018-12-07T09:05:51.104Z,13.10
2018-12-07T09:08:25.557Z,13.10
2018-12-07T09:11:00.059Z,13.20
2018-12-07T09:13:34.937Z,13.10
2018-12-07T09:16:09.102Z,13.20
2018-12-07T09:18:43.588Z,13.20
2018-12-07T09:21:17.762Z,13.20
2018-12-07T09:23:51.841Z,13.20
2018-12-07T09:26:25.869Z,13.20
2018-12-07T09:29:02.578Z,13.30
2018-12-07T09:31:37.590Z,13.30
2018-12-07T09:34:12.029Z,13.30
2018-12-07T09:36:49.060Z,13.30
2018-12-07T09:39:26.297Z,13.30
2018-12-07T09:42:13.749Z,13.40
2018-12-07T09:44:46.484Z,13.40
2018-12-07T09:47:20.902Z,13.40
2018-12-07T09:49:54.814Z,13.40
2018-12-07T09:52:28.900Z,13.40
2018-12-07T09:55:07.333Z,13.50
2018-12-07T09:57:42.381Z,13.50
2018-12-07T10:00:16.592Z,13.50
2018-12-07T10:02:50.788Z,13.60
2018-12-07T10:05:25.067Z,13.50
2018-12-07T10:07:59.319Z,13.60
2018-12-07T10:10:37.680Z,13.60
2018-12-07T10:13:12.018Z,13.60
2018-12-07T10:15:46.165Z,13.70
2018-12-07T10:18:20.339Z,13.70
2018-12-07T10:20:54.728Z,13.70
2018-12-07T10:23:29.177Z,13.80
2018-12-07T10:26:03.605Z,13.80
2018-12-07T10:28:35.422Z,13.80
2018-12-07T10:31:10.114Z,13.90
2018-12-07T10:33:44.383Z,13.90
2018-12-07T10:36:24.648Z,13.90
2018-12-07T10:38:58.956Z,14.00
2018-12-07T10:41:33.222Z,14.10
2018-12-07T10:44:07.358Z,14.10
2018-12-07T10:46:41.321Z,14.10
2018-12-07T10:49:15.450Z,14.20
2018-12-07T10:51:49.508Z,14.20
2018-12-07T10:54:23.748Z,14.20
2018-12-07T10:56:57.859Z,14.30
2018-12-07T10:59:32.452Z,14.20
2018-12-07T11:02:11.935Z,14.30
2018-12-07T11:04:52.043Z,14.30
2018-12-07T11:07:29.332Z,14.30
2018-12-07T11:10:10.408Z,14.30
2018-12-07T11:12:50.729Z,14.30
2018-12-07T11:15:28.216Z,14.40
2018-12-07T11:18:08.179Z,14.40
2018-12-07T11:20:47.912Z,14.40
2018-12-07T11:23:23.767Z,14.40
2018-12-07T11:26:03.769Z,14.40
2018-12-07T11:28:44.912Z,14.40
2018-12-07T11:31:22.468Z,14.50
2018-12-07T11:33:58.799Z,14.50
2018-12-07T11:36:32.775Z,14.50
2018-12-07T11:39:08.042Z,14.60
2018-12-07T11:41:42.012Z,14.60
2018-12-07T11:44:16.375Z,14.60
2018-12-07T11:46:50.697Z,14.60
2018-12-07T11:49:30.922Z,14.60
2018-12-07T11:52:05.317Z,14.70
2018-12-07T11:54:39.696Z,14.70
2018-12-07T11:57:14.005Z,14.70
2018-12-07T11:59:48.330Z,14.70
2018-12-07T12:02:26.316Z,14.70
2018-12-07T12:04:58.905Z,14.80
2018-12-07T12:07:32.933Z,14.80
2018-12-07T12:10:04.465Z,14.80
2018-12-07T12:12:42.485Z,14.80
2018-12-07T12:15:21.852Z,14.80
2018-12-07T12:17:55.906Z,14.90
2018-12-07T12:20:30.346Z,15.00
2018-12-07T12:23:03.106Z,15.00
2018-12-07T12:25:37.495Z,15.00
2018-12-07T12:28:11.931Z,15.00
2018-12-07T12:30:46.226Z,15.00
2018-12-07T12:33:26.916Z,15.00
2018-12-07T12:36:01.485Z,14.90
2018-12-07T12:38:39.634Z,15.00
2018-12-07T12:41:13.801Z,14.90
2018-12-07T12:43:47.909Z,14.90
2018-12-07T12:46:22.315Z,14.90
2018-12-07T12:48:56.358Z,14.90
2018-12-07T12:51:30.793Z,14.80
2018-12-07T12:54:04.947Z,14.80
2018-12-07T12:56:38.941Z,14.90
2018-12-07T12:59:13.157Z,14.80
2018-12-07T13:01:47.087Z,14.80
2018-12-07T13:04:21.402Z,14.80
2018-12-07T13:06:57.331Z,14.70
2018-12-07T13:09:31.403Z,14.70
2018-12-07T13:12:05.611Z,14.70
2018-12-07T13:14:39.505Z,14.70
2018-12-07T13:17:13.507Z,14.60
2018-12-07T13:19:47.725Z,14.70
2018-12-07T13:22:21.925Z,14.60
2018-12-07T13:24:56.012Z,14.60
2018-12-07T13:27:32.070Z,14.60
2018-12-07T13:30:06.992Z,14.60
2018-12-07T13:32:48.326Z,14.50
2018-12-07T13:35:21.281Z,14.50
2018-12-07T13:37:53.602Z,14.40
2018-12-07T13:40:29.716Z,14.40
2018-12-07T13:43:04.616Z,14.40
2018-12-07T13:45:38.885Z,14.40
2018-12-07T13:48:14.127Z,14.40
2018-12-07T13:50:49.001Z,14.30
2018-12-07T13:53:24.001Z,14.30
2018-12-07T13:55:58.262Z,14.30
2018-12-07T13:58:36.256Z,14.20
2018-12-07T14:01:10.471Z,14.20
2018-12-07T14:03:44.666Z,14.20
2018-12-07T14:06:19.092Z,14.20
2018-12-07T14:08:53.206Z,14.10
2018-12-07T14:11:25.383Z,14.10
2018-12-07T14:13:59.469Z,14.00
2018-12-07T14:16:33.805Z,14.00
2018-12-07T14:19:08.259Z,14.00
2018-12-07T14:21:42.412Z,13.90
2018-12-07T14:24:16.702Z,14.00
2018-12-07T14:26:50.878Z,13.90
2018-12-07T14:29:25.178Z,13.90
2018-12-07T14:31:59.258Z,13.90
2018-12-07T14:34:31.111Z,13.90
2018-12-07T14:37:03.495Z,13.80
2018-12-07T14:39:38.465Z,13.80
2018-12-07T14:42:12.586Z,13.70
2018-12-07T14:44:48.490Z,13.70
2018-12-07T14:47:22.695Z,13.60
2018-12-07T14:50:02.120Z,13.50
2018-12-07T14:52:36.276Z,13.50
2018-12-07T14:55:10.415Z,13.50
2018-12-07T14:57:44.966Z,13.40
2018-12-07T15:00:19.263Z,13.40
2018-12-07T15:02:51.476Z,13.30
2018-12-07T15:05:23.679Z,13.20
2018-12-07T15:07:55.964Z,13.20
2018-12-07T15:10:31.066Z,13.20
2018-12-07T15:13:05.113Z,13.20
2018-12-07T15:15:41.981Z,13.10
2018-12-07T15:18:16.394Z,13.10
2018-12-07T15:43:59.706Z,12.90
2018-12-07T15:46:34.858Z,12.90
2018-12-07T15:49:07.134Z,12.90
2018-12-07T15:54:41.742Z,12.90
2018-12-07T15:57:15.529Z,12.90
2018-12-07T15:59:49.846Z,12.90
2018-12-07T16:05:37.037Z,12.80
2018-12-07T16:08:11.527Z,12.80
2018-12-07T16:10:49.302Z,12.80
2018-12-07T16:13:26.204Z,12.80
2018-12-07T16:16:00.488Z,12.80
2018-12-07T16:18:34.707Z,12.80
2018-12-07T16:21:09.274Z,12.80
2018-12-07T16:23:44.058Z,12.80
2018-12-07T16:26:18.454Z,12.80
2018-12-07T16:28:52.646Z,12.80
2018-12-07T16:31:27.510Z,12.80
2018-12-07T16:34:01.926Z,12.80
2018-12-07T16:36:45.799Z,12.80
2018-12-07T16:39:23.830Z,12.80
2018-12-07T16:41:58.154Z,12.70
2018-12-07T16:44:31.090Z,12.70
2018-12-07T16:47:05.357Z,12.70
2018-12-07T16:49:39.944Z,12.60
2018-12-07T16:52:12.205Z,12.60
2018-12-07T16:54:46.918Z,12.60
2018-12-07T16:57:18.803Z,12.60
2018-12-07T16:59:52.990Z,12.50
2018-12-07T17:02:27.041Z,12.50
2018-12-07T17:05:01.903Z,12.50
2018-12-07T17:07:34.108Z,12.50
2018-12-07T17:10:08.285Z,12.40
2018-12-07T17:12:42.486Z,12.30
2018-12-07T17:15:16.617Z,12.20
2018-12-07T17:17:55.838Z,12.00
2018-12-07T17:20:30.037Z,11.80
2018-12-07T17:23:02.491Z,11.60
2018-12-07T17:25:34.682Z,11.50
2018-12-07T17:28:11.129Z,11.40
2018-12-07T17:30:45.420Z,11.30
2018-12-07T17:33:19.456Z,11.10
2018-12-07T17:35:51.079Z,11.00
2018-12-07T17:38:29.881Z,11.00
2018-12-07T17:41:07.918Z,10.90
2018-12-07T17:43:42.233Z,10.80
2018-12-07T17:46:16.485Z,10.70
2018-12-07T17:48:51.316Z,10.70
2018-12-07T17:51:29.913Z,10.60
2018-12-07T17:54:15.419Z,10.60
2018-12-07T17:56:50.306Z,10.60
2018-12-07T17:59:25.193Z,10.50
2018-12-07T18:02:12.764Z,10.50
2018-12-07T18:04:46.807Z,10.50
2018-12-07T18:07:20.947Z,10.40
2018-12-07T18:09:55.376Z,10.50
2018-12-07T18:12:30.709Z,10.40
2018-12-07T18:15:06.795Z,10.40
2018-12-07T18:17:44.873Z,10.40
2018-12-07T18:20:19.078Z,10.40
2018-12-07T18:22:53.792Z,10.30
2018-12-07T18:25:25.906Z,10.30
2018-12-07T18:28:03.885Z,10.30
2018-12-07T18:30:38.659Z,10.30
2018-12-07T18:33:12.687Z,10.20
2018-12-07T18:35:47.206Z,10.30
2018-12-07T18:38:21.508Z,10.30
2018-12-07T18:40:55.569Z,10.20
2018-12-07T18:43:43.232Z,10.20
2018-12-07T18:46:22.113Z,10.10
2018-12-07T18:49:18.327Z,10.10
2018-12-07T18:51:56.568Z,10.10
2018-12-07T18:54:30.834Z,10.00
2018-12-07T18:57:04.127Z,9.90
2018-12-07T18:59:37.103Z,9.90
2018-12-07T19:02:11.453Z,9.90
2018-12-07T19:04:45.793Z,9.90
2018-12-07T19:07:20.102Z,9.90
2018-12-07T19:09:54.934Z,9.90
2018-12-07T19:12:27.045Z,9.90
2018-12-07T19:14:59.538Z,9.80
2018-12-07T19:17:34.958Z,9.80
2018-12-07T19:20:09.710Z,9.80
2018-12-07T19:22:41.733Z,9.70
2018-12-07T19:25:16.462Z,9.70
2018-12-07T19:27:50.750Z,9.70
2018-12-07T19:30:27.048Z,9.60
2018-12-07T19:33:05.581Z,9.60
2018-12-07T19:35:40.398Z,9.60
2018-12-07T19:38:15.381Z,9.60
2018-12-07T19:40:48.292Z,9.60
2018-12-07T19:46:28.690Z,9.50
2018-12-07T19:49:00.891Z,9.50
2018-12-07T19:51:33.361Z,9.50
2018-12-07T19:54:08.106Z,9.40
2018-12-07T19:56:42.016Z,9.40
2018-12-07T19:59:16.494Z,9.30
2018-12-07T20:01:51.450Z,9.30
2018-12-07T20:04:25.987Z,9.30
2018-12-07T20:07:01.573Z,9.20
2018-12-07T20:09:36.084Z,9.20
2018-12-07T20:12:11.694Z,9.20
2018-12-07T20:14:46.111Z,9.10
2018-12-07T20:17:20.319Z,9.10
2018-12-07T20:19:52.761Z,9.10
2018-12-07T20:22:27.229Z,9.10
2018-12-07T20:25:02.163Z,9.10
2018-12-07T20:27:38.056Z,9.10
2018-12-07T20:30:21.804Z,9.00
2018-12-07T20:32:56.057Z,9.00
2018-12-07T20:35:30.557Z,9.00
2018-12-07T20:38:05.424Z,9.00
2018-12-07T20:40:39.485Z,9.00
2018-12-07T20:43:13.517Z,8.90
2018-12-07T20:45:47.944Z,8.90
2018-12-07T20:48:22.827Z,8.90
2018-12-07T20:50:56.958Z,8.90
2018-12-07T20:53:31.525Z,8.90
2018-12-07T20:56:03.511Z,9.00
2018-12-07T20:58:37.897Z,9.00
2018-12-07T21:19:12.473Z,9.30
2018-12-07T21:21:50.439Z,9.40
2018-12-07T21:24:24.869Z,9.40
2018-12-07T21:26:59.001Z,9.40
2018-12-07T21:29:33.267Z,9.20
2018-12-07T21:32:10.213Z,9.20
2018-12-07T21:35:04.792Z,9.20
2018-12-07T21:37:39.142Z,9.20
2018-12-07T21:40:13.735Z,9.10
2018-12-07T21:42:48.266Z,9.10
2018-12-07T21:45:39.759Z,9.10
2018-12-07T21:48:20.996Z,9.00
2018-12-07T21:51:01.246Z,8.90
2018-12-07T21:53:33.631Z,8.90
2018-12-07T21:56:08.588Z,8.80
2018-12-07T21:58:42.641Z,8.80
2018-12-07T22:01:17.029Z,8.70
2018-12-07T22:03:49.073Z,8.70
2018-12-07T22:06:24.762Z,8.70
2018-12-07T22:08:59.344Z,8.70
2018-12-07T22:11:33.429Z,8.60
2018-12-07T22:14:07.767Z,8.60
2018-12-07T22:16:41.947Z,8.60
2018-12-07T22:19:24.469Z,8.60
2018-12-07T22:21:56.479Z,8.60
2018-12-07T22:24:30.689Z,8.70
2018-12-07T22:27:05.014Z,8.60
2018-12-07T22:29:39.434Z,8.70
2018-12-07T22:32:11.603Z,8.70
2018-12-07T22:34:45.556Z,8.70
2018-12-07T22:37:23.964Z,8.70
2018-12-07T22:39:58.420Z,8.70
2018-12-07T22:42:32.695Z,8.70
2018-12-07T22:45:06.937Z,8.70
2018-12-07T22:47:41.788Z,8.70
2018-12-07T22:50:16.104Z,8.60
2018-12-07T22:52:50.321Z,8.60
2018-12-07T22:55:24.511Z,8.50
2018-12-07T22:57:58.618Z,8.50
2018-12-07T23:00:38.571Z,8.50
2018-12-07T23:03:13.072Z,8.50
2018-12-07T23:05:50.885Z,8.50
2018-12-07T23:14:29.303Z,8.40
2018-12-07T23:17:16.794Z,8.50
2018-12-07T23:19:50.706Z,8.50
2018-12-07T23:25:24.935Z,8.50
2018-12-07T23:27:59.078Z,8.50
2018-12-07T23:30:33.168Z,8.50
2018-12-07T23:33:07.213Z,8.50
2018-12-07T23:35:41.447Z,8.40
2018-12-07T23:40:47.292Z,8.40
2018-12-07T23:46:21.257Z,8.30
2018-12-07T23:48:55.369Z,8.40
2018-12-07T23:51:29.489Z,8.30
2018-12-07T23:54:16.891Z,8.30
2018-12-07T23:56:51.573Z,8.30
2018-12-07T23:59:25.652Z,8.30
